Time;durP1;ratioP1;P1;durP2;ratioP2;P2;SDS_P1;SDS_P2;PMS_P1;PMS_P2;Temp;Humidity;BMP_temperature;BMP_pressure;BME280_temperature;BME280_humidity;BME280_pressure;Samples;Min_cycle;Max_cycle;Signal;HPM_P1;HPM_P2
2021/04/29 00:00:47;;;;;;;1.08;0.50;;;12.20;77.80;;;;;;5055034;28;20033;-76
2021/04/29 00:03:12;;;;;;;1.95;0.45;;;12.30;77.90;;;;;;5056050;28;20037;-75
2021/04/29 00:05:38;;;;;;;0.80;0.50;;;12.20;77.50;;;;;;5054842;28;20018;-76
2021/04/29 00:08:04;;;;;;;0.60;0.40;;;12.20;77.20;;;;;;5056239;28;20064;-75
2021/04/29 00:10:32;;;;;;;1.40;0.60;;;12.20;77.50;;;;;;5054647;28;20028;-75
2021/04/29 00:12:58;;;;;;;0.40;0.40;;;12.10;77.80;;;;;;5055001;28;20029;-75
2021/04/29 00:15:24;;;;;;;0.43;0.30;;;12.20;77.70;;;;;;5056166;28;20488;-75
2021/04/29 00:17:50;;;;;;;0.30;0.30;;;12.10;77.40;;;;;;5054834;28;20112;-75
2021/04/29 00:20:22;;;;;;;0.80;0.28;;;12.00;76.90;;;;;;5054677;28;20508;-74
2021/04/29 00:22:48;;;;;;;2.03;0.57;;;12.10;77.90;;;;;;5054760;28;20060;-75
2021/04/29 00:25:14;;;;;;;1.60;0.90;;;12.10;77.10;;;;;;5054777;28;20017;-75
2021/04/29 00:27:41;;;;;;;1.05;0.60;;;12.00;77.10;;;;;;5054471;28;20037;-76
2021/04/29 00:30:11;;;;;;;1.42;0.20;;;12.00;77.40;;;;;;5055922;28;20025;-76
2021/04/29 00:32:37;;;;;;;0.30;0.30;;;12.00;77.00;;;;;;5055934;28;20052;-75
2021/04/29 00:35:03;;;;;;;0.22;0.22;;;12.00;77.00;;;;;;5056045;28;20017;-74
2021/04/29 00:37:29;;;;;;;0.20;0.20;;;12.00;76.80;;;;;;5054498;28;20021;-75
2021/04/29 00:39:54;;;;;;;1.25;0.50;;;11.90;76.90;;;;;;5054641;28;20404;-76
2021/04/29 00:42:20;;;;;;;1.55;0.20;;;11.90;76.20;;;;;;5054304;28;20041;-76
2021/04/29 00:44:46;;;;;;;0.15;0.10;;;12.00;76.50;;;;;;5054207;28;20453;-77
2021/04/29 00:47:13;;;;;;;0.40;0.20;;;11.90;76.20;;;;;;5054512;28;20021;-77
2021/04/29 00:49:39;;;;;;;0.35;0.20;;;11.90;77.20;;;;;;5054310;28;20036;-78
2021/04/29 00:52:05;;;;;;;0.40;0.40;;;11.90;76.40;;;;;;5054664;28;20025;-78
2021/04/29 00:54:31;;;;;;;0.50;0.50;;;11.90;76.40;;;;;;5054271;28;20036;-77
2021/04/29 00:56:57;;;;;;;0.63;0.63;;;12.00;76.50;;;;;;5054369;28;20021;-77
2021/04/29 00:59:23;;;;;;;1.52;0.43;;;12.00;76.50;;;;;;5054434;28;20031;-77
2021/04/29 01:01:54;;;;;;;0.13;0.10;;;12.00;76.00;;;;;;5053869;28;20033;-77
2021/04/29 01:04:28;;;;;;;0.10;0.10;;;12.00;75.70;;;;;;5054213;28;20036;-77
2021/04/29 01:07:22;;;;;;;0.65;0.20;;;12.00;75.80;;;;;;5054145;28;20027;-77
2021/04/29 01:09:56;;;;;;;0.30;0.10;;;12.00;75.80;;;;;;5053011;28;20033;-77
2021/04/29 01:12:33;;;;;;;0.55;0.30;;;12.00;75.60;;;;;;5053812;28;20478;-78
2021/04/29 01:15:00;;;;;;;0.10;0.10;;;12.00;75.70;;;;;;5053950;28;20094;-78
2021/04/29 01:17:26;;;;;;;0.28;0.20;;;12.00;76.00;;;;;;5053780;28;20055;-77
2021/04/29 01:20:00;;;;;;;0.52;0.32;;;12.00;76.80;;;;;;5053531;28;20029;-76
2021/04/29 01:22:26;;;;;;;0.88;0.50;;;11.90;75.50;;;;;;5037757;28;20037;-77
2021/04/29 01:24:59;;;;;;;0.30;0.30;;;11.90;74.70;;;;;;5053736;28;20025;-77
2021/04/29 01:27:25;;;;;;;1.75;0.45;;;12.00;74.20;;;;;;5053652;28;20025;-78
2021/04/29 01:29:52;;;;;;;0.85;0.60;;;11.90;74.90;;;;;;5057839;28;20022;-76
2021/04/29 01:32:18;;;;;;;0.65;0.30;;;11.90;74.60;;;;;;5068682;28;20025;-78
2021/04/29 01:34:45;;;;;;;0.60;0.40;;;11.80;74.70;;;;;;5058944;28;20035;-77
2021/04/29 01:37:11;;;;;;;2.17;0.50;;;11.80;74.90;;;;;;5037078;28;20482;-77
2021/04/29 01:39:37;;;;;;;0.47;0.30;;;11.80;74.40;;;;;;5054230;28;20056;-76
2021/04/29 01:42:04;;;;;;;0.77;0.45;;;11.70;74.80;;;;;;5053308;28;20115;-77
2021/04/29 01:44:30;;;;;;;2.28;0.30;;;11.80;73.50;;;;;;5054494;28;20482;-78
2021/04/29 01:46:58;;;;;;;1.67;0.60;;;11.70;72.10;;;;;;5053141;28;20128;-78
2021/04/29 01:49:25;;;;;;;2.33;1.10;;;11.80;71.90;;;;;;5054536;28;20044;-78
2021/04/29 01:51:52;;;;;;;1.42;0.70;;;11.70;72.40;;;;;;5052985;28;20033;-77
2021/04/29 01:54:20;;;;;;;1.25;0.63;;;11.70;71.80;;;;;;5054138;28;20033;-77
2021/04/29 01:56:46;;;;;;;3.40;0.75;;;11.60;71.00;;;;;;5053072;28;20017;-78
2021/04/29 01:59:13;;;;;;;4.20;0.75;;;11.70;71.20;;;;;;5052912;28;20453;-78
2021/04/29 02:01:42;;;;;;;2.45;0.70;;;11.70;71.00;;;;;;5053450;28;20385;-77
2021/04/29 02:04:09;;;;;;;3.03;0.68;;;11.60;70.30;;;;;;5054203;28;20037;-77
2021/04/29 02:06:39;;;;;;;1.65;0.80;;;11.60;70.20;;;;;;5052894;28;20017;-77
2021/04/29 02:09:05;;;;;;;1.35;0.50;;;11.60;70.20;;;;;;5052800;28;20025;-78
2021/04/29 02:11:35;;;;;;;1.10;0.70;;;11.60;70.20;;;;;;5055677;28;20024;-77
2021/04/29 02:14:03;;;;;;;2.33;0.70;;;11.70;69.60;;;;;;5053434;28;20025;-78
2021/04/29 02:16:39;;;;;;;2.28;0.70;;;11.60;69.90;;;;;;5054297;28;20066;-78
2021/04/29 02:19:07;;;;;;;1.50;0.70;;;11.60;70.50;;;;;;5057387;28;20036;-78
2021/04/29 02:21:34;;;;;;;3.25;1.02;;;11.50;71.30;;;;;;5052813;28;20025;-78
2021/04/29 02:24:00;;;;;;;3.72;0.90;;;11.50;71.60;;;;;;5052728;28;20496;-77
2021/04/29 02:26:26;;;;;;;1.25;0.90;;;11.50;71.90;;;;;;5053543;28;20025;-79
2021/04/29 02:28:53;;;;;;;2.22;1.00;;;11.40;72.10;;;;;;5056480;28;20025;-78
2021/04/29 02:31:20;;;;;;;1.73;0.80;;;11.30;73.20;;;;;;5062929;28;20055;-78
2021/04/29 02:33:46;;;;;;;1.08;0.70;;;11.30;73.10;;;;;;5052735;28;20024;-78
2021/04/29 02:36:11;;;;;;;3.22;0.65;;;11.20;73.30;;;;;;5052321;28;20074;-79
2021/04/29 02:38:38;;;;;;;3.63;0.90;;;11.20;73.60;;;;;;5035867;28;20045;-79
2021/04/29 02:41:05;;;;;;;1.52;0.70;;;11.20;73.50;;;;;;5052458;28;20107;-80
2021/04/29 02:43:32;;;;;;;0.85;0.73;;;11.20;73.40;;;;;;5057735;28;20033;-78
2021/04/29 02:45:57;;;;;;;2.67;1.52;;;11.20;73.60;;;;;;5053684;28;20511;-78
2021/04/29 02:48:24;;;;;;;0.88;0.70;;;11.10;74.00;;;;;;5054049;28;20029;-78
2021/04/29 02:50:50;;;;;;;2.13;0.70;;;11.00;74.10;;;;;;5053439;28;20021;-77
2021/04/29 02:53:17;;;;;;;1.85;1.33;;;11.10;74.30;;;;;;5053523;28;20083;-78
2021/04/29 02:55:44;;;;;;;2.38;1.80;;;11.10;74.60;;;;;;5053711;28;20040;-76
2021/04/29 02:58:13;;;;;;;1.30;1.13;;;11.10;75.20;;;;;;5053371;28;20029;-75
2021/04/29 03:00:40;;;;;;;1.30;1.02;;;11.10;74.80;;;;;;5053318;28;20059;-76
2021/04/29 03:03:08;;;;;;;1.52;0.93;;;11.20;74.80;;;;;;5053072;28;20068;-76
2021/04/29 03:05:35;;;;;;;3.78;1.15;;;11.10;75.20;;;;;;5053055;28;20097;-75
2021/04/29 03:08:01;;;;;;;3.20;1.10;;;11.10;74.70;;;;;;5053161;28;20098;-78
2021/04/29 03:10:27;;;;;;;2.65;1.20;;;11.00;74.60;;;;;;5053041;28;20477;-77
2021/04/29 03:12:53;;;;;;;2.33;1.17;;;11.00;74.60;;;;;;5052292;28;20029;-75
2021/04/29 03:15:19;;;;;;;1.95;1.10;;;11.00;74.70;;;;;;5053012;28;20067;-76
2021/04/29 03:17:44;;;;;;;2.97;1.20;;;11.10;74.00;;;;;;5052887;28;20033;-79
2021/04/29 03:20:11;;;;;;;3.80;1.20;;;11.00;73.60;;;;;;5053025;28;20018;-77
2021/04/29 03:22:37;;;;;;;2.55;1.10;;;11.10;73.40;;;;;;5052748;28;20492;-77
2021/04/29 03:25:03;;;;;;;4.90;1.40;;;11.10;73.70;;;;;;5051678;28;20029;-78
2021/04/29 03:27:29;;;;;;;3.05;1.20;;;11.10;73.60;;;;;;5051468;28;20028;-76
2021/04/29 03:29:55;;;;;;;4.20;1.50;;;11.00;73.40;;;;;;5052860;28;20017;-76
2021/04/29 03:32:20;;;;;;;1.85;1.15;;;11.00;73.60;;;;;;5052687;28;20021;-75
2021/04/29 03:34:46;;;;;;;2.85;1.50;;;11.10;73.60;;;;;;5052806;28;20060;-76
2021/04/29 03:37:12;;;;;;;3.28;1.67;;;11.00;73.40;;;;;;5052926;28;20057;-76
2021/04/29 03:39:37;;;;;;;1.60;1.30;;;11.00;73.30;;;;;;5052674;28;20453;-74
2021/04/29 03:42:06;;;;;;;3.88;1.80;;;10.90;73.50;;;;;;5052628;28;20188;-75
2021/04/29 03:44:35;;;;;;;3.50;1.48;;;10.80;73.50;;;;;;5052844;28;20489;-76
2021/04/29 03:47:02;;;;;;;2.95;1.30;;;10.80;73.00;;;;;;5052863;28;20024;-77
2021/04/29 03:49:27;;;;;;;2.15;1.33;;;10.70;72.80;;;;;;5052701;28;20025;-77
2021/04/29 03:51:53;;;;;;;2.53;1.60;;;10.60;72.90;;;;;;5052497;28;20025;-77
2021/04/29 03:54:18;;;;;;;3.97;1.65;;;10.70;72.50;;;;;;5052576;28;20027;-76
2021/04/29 03:56:44;;;;;;;3.95;1.85;;;10.70;72.10;;;;;;5052533;28;20028;-77
2021/04/29 03:59:10;;;;;;;3.88;1.35;;;10.70;71.60;;;;;;5052518;28;20386;-76
2021/04/29 04:01:35;;;;;;;4.82;1.85;;;10.70;71.70;;;;;;5052404;28;20104;-76
2021/04/29 04:04:01;;;;;;;2.65;1.63;;;10.80;71.70;;;;;;5052412;28;20029;-76
2021/04/29 04:06:26;;;;;;;3.38;1.80;;;10.70;71.20;;;;;;5052328;28;20477;-76
2021/04/29 04:08:52;;;;;;;3.40;1.83;;;10.70;71.10;;;;;;5051359;28;20032;-76
2021/04/29 04:11:17;;;;;;;3.95;2.30;;;10.70;70.30;;;;;;5052733;28;20021;-76
2021/04/29 04:13:43;;;;;;;4.00;2.10;;;10.60;70.70;;;;;;5060817;28;20048;-76
2021/04/29 04:16:11;;;;;;;3.28;1.92;;;10.60;71.00;;;;;;5063883;28;20171;-76
2021/04/29 04:18:38;;;;;;;4.43;2.10;;;10.70;70.60;;;;;;5052373;28;20082;-76
2021/04/29 04:21:03;;;;;;;2.88;2.35;;;10.70;70.70;;;;;;5052470;28;20025;-77
2021/04/29 04:23:29;;;;;;;3.08;1.90;;;10.80;70.10;;;;;;5052773;28;20041;-76
2021/04/29 04:25:55;;;;;;;4.35;1.90;;;10.80;70.30;;;;;;5056000;28;20021;-78
2021/04/29 04:28:20;;;;;;;2.53;1.75;;;10.80;70.40;;;;;;5055798;28;20383;-76
2021/04/29 04:30:46;;;;;;;4.68;2.38;;;10.70;70.00;;;;;;5055937;28;20024;-76
2021/04/29 04:33:11;;;;;;;14.60;2.30;;;10.80;69.70;;;;;;5055808;28;20058;-76
2021/04/29 04:35:37;;;;;;;5.40;2.33;;;10.80;69.50;;;;;;5055618;28;20036;-76
2021/04/29 04:38:02;;;;;;;6.13;2.30;;;10.90;69.40;;;;;;5055671;28;20028;-75
2021/04/29 04:40:28;;;;;;;3.30;2.53;;;10.90;68.70;;;;;;5055551;28;20029;-75
2021/04/29 04:42:54;;;;;;;7.35;3.40;;;11.00;68.20;;;;;;5055585;28;20112;-79
2021/04/29 04:45:19;;;;;;;3.42;2.35;;;10.90;68.10;;;;;;5054341;28;20021;-78
2021/04/29 04:47:45;;;;;;;6.65;2.58;;;11.00;67.80;;;;;;5055582;28;20024;-79
2021/04/29 04:50:11;;;;;;;3.80;2.20;;;11.00;68.20;;;;;;5055546;28;20025;-79
2021/04/29 04:52:37;;;;;;;4.35;2.20;;;11.10;67.30;;;;;;5055377;28;20028;-79
2021/04/29 04:55:03;;;;;;;3.10;1.77;;;11.20;67.20;;;;;;5055523;28;20025;-76
2021/04/29 04:57:29;;;;;;;4.65;2.80;;;11.30;67.20;;;;;;5055280;28;20096;-76
2021/04/29 04:59:54;;;;;;;3.92;2.50;;;11.30;67.20;;;;;;5055247;28;20057;-77
2021/04/29 05:02:20;;;;;;;2.78;2.20;;;11.40;67.00;;;;;;5055119;28;20041;-75
2021/04/29 05:04:45;;;;;;;4.85;3.08;;;11.50;67.10;;;;;;5055234;28;20029;-75
2021/04/29 05:07:11;;;;;;;4.28;3.13;;;11.50;66.50;;;;;;5055198;28;20096;-75
2021/04/29 05:09:37;;;;;;;7.07;3.15;;;11.50;65.50;;;;;;5056936;28;20025;-76
2021/04/29 05:12:03;;;;;;;4.38;2.42;;;11.40;65.30;;;;;;5058791;28;20025;-75
2021/04/29 05:14:29;;;;;;;5.70;2.40;;;11.40;66.60;;;;;;5058003;28;20029;-75
2021/04/29 05:16:56;;;;;;;3.78;2.45;;;11.30;66.10;;;;;;5056840;28;20033;-75
2021/04/29 05:19:21;;;;;;;5.63;2.92;;;11.20;66.30;;;;;;5054934;28;20035;-76
2021/04/29 05:21:47;;;;;;;9.60;2.95;;;11.20;67.30;;;;;;5054630;28;20033;-76
2021/04/29 05:24:12;;;;;;;8.38;3.15;;;11.20;67.70;;;;;;5054762;28;20104;-74
2021/04/29 05:26:38;;;;;;;5.45;3.15;;;11.10;68.10;;;;;;5054508;28;20025;-73
2021/04/29 05:29:04;;;;;;;4.07;2.60;;;11.00;68.50;;;;;;5054532;28;20040;-75
2021/04/29 05:31:30;;;;;;;6.07;3.22;;;10.80;69.50;;;;;;5054548;28;20043;-75
2021/04/29 05:33:55;;;;;;;6.82;3.95;;;10.80;69.60;;;;;;5054549;28;20528;-76
2021/04/29 05:36:21;;;;;;;6.60;4.18;;;10.80;69.30;;;;;;5053600;28;20093;-76
2021/04/29 05:38:46;;;;;;;6.63;4.13;;;10.80;68.90;;;;;;5054506;28;20064;-75
2021/04/29 05:41:12;;;;;;;6.90;4.18;;;10.80;68.50;;;;;;5054494;28;20017;-75
2021/04/29 05:43:37;;;;;;;6.90;4.20;;;10.80;68.60;;;;;;5054265;28;20174;-74
2021/04/29 05:46:03;;;;;;;6.05;4.40;;;10.90;68.70;;;;;;5054437;28;20029;-75
2021/04/29 05:48:29;;;;;;;9.15;4.47;;;10.90;68.30;;;;;;5054371;28;20075;-75
2021/04/29 05:50:56;;;;;;;10.48;4.90;;;10.90;68.60;;;;;;5054587;28;20406;-76
2021/04/29 05:53:21;;;;;;;11.80;5.00;;;10.90;68.80;;;;;;5069819;28;20047;-75
2021/04/29 05:55:47;;;;;;;11.32;4.90;;;11.00;69.00;;;;;;5066845;28;20033;-76
2021/04/29 05:58:12;;;;;;;10.65;5.10;;;11.10;68.70;;;;;;5054109;28;20025;-76
2021/04/29 06:00:38;;;;;;;8.05;5.00;;;11.20;68.40;;;;;;5054170;28;20036;-77
2021/04/29 06:03:04;;;;;;;9.75;5.20;;;11.20;68.20;;;;;;5053850;28;20170;-76
2021/04/29 06:05:29;;;;;;;9.32;5.35;;;11.20;68.50;;;;;;5054240;28;20021;-76
2021/04/29 06:07:55;;;;;;;12.80;6.10;;;11.20;68.20;;;;;;5053983;28;20029;-76
2021/04/29 06:10:21;;;;;;;11.57;6.38;;;11.30;68.30;;;;;;5056724;28;20021;-76
2021/04/29 06:12:47;;;;;;;7.22;5.00;;;11.40;67.60;;;;;;5056305;28;20052;-76
2021/04/29 06:15:13;;;;;;;8.82;5.80;;;11.40;67.20;;;;;;5054146;28;20477;-78
2021/04/29 06:17:38;;;;;;;9.30;5.65;;;11.50;66.80;;;;;;5053650;28;20042;-77
2021/04/29 06:20:05;;;;;;;14.75;8.52;;;11.50;66.60;;;;;;5053524;28;20068;-76
2021/04/29 06:22:30;;;;;;;11.63;7.20;;;11.40;67.00;;;;;;5053603;28;20077;-74
2021/04/29 06:24:56;;;;;;;12.57;6.53;;;11.20;67.60;;;;;;5053707;28;20028;-75
2021/04/29 06:27:21;;;;;;;10.48;5.85;;;11.30;67.80;;;;;;5053868;28;20127;-75
2021/04/29 06:29:47;;;;;;;7.10;5.05;;;11.30;67.70;;;;;;5053756;28;20059;-75
2021/04/29 06:32:12;;;;;;;11.00;5.72;;;11.30;68.10;;;;;;5053525;28;20052;-75
2021/04/29 06:34:39;;;;;;;7.45;5.20;;;11.30;67.50;;;;;;5051926;28;20071;-76
2021/04/29 06:37:04;;;;;;;9.35;5.72;;;11.50;67.40;;;;;;5053305;28;20504;-76
2021/04/29 06:39:30;;;;;;;7.43;4.30;;;11.60;66.90;;;;;;5053289;28;20049;-77
2021/04/29 06:41:56;;;;;;;14.20;6.20;;;11.70;66.60;;;;;;5052971;28;20081;-76
2021/04/29 06:44:21;;;;;;;12.48;6.18;;;11.80;65.80;;;;;;5053082;28;20036;-75
2021/04/29 06:46:47;;;;;;;10.48;7.13;;;11.90;65.40;;;;;;5052712;28;20488;-78
2021/04/29 06:49:13;;;;;;;17.98;7.03;;;11.90;64.80;;;;;;5052942;28;20100;-76
2021/04/29 06:51:38;;;;;;;10.23;6.95;;;11.90;63.80;;;;;;5052858;28;20036;-76
2021/04/29 06:54:06;;;;;;;12.57;7.90;;;12.10;63.00;;;;;;5052880;28;20104;-76
2021/04/29 06:56:31;;;;;;;11.50;6.97;;;12.10;62.20;;;;;;5053254;28;20147;-75
2021/04/29 06:58:57;;;;;;;19.60;8.70;;;12.20;62.20;;;;;;5053159;28;20075;-76
2021/04/29 07:01:23;;;;;;;14.40;7.53;;;12.20;61.40;;;;;;5052965;28;20025;-76
2021/04/29 07:03:48;;;;;;;12.32;7.32;;;12.20;61.10;;;;;;5052495;28;20124;-76
2021/04/29 07:06:14;;;;;;;14.27;7.40;;;12.20;61.80;;;;;;5052910;28;20036;-76
2021/04/29 07:08:39;;;;;;;10.18;6.32;;;12.10;62.00;;;;;;5051468;28;20050;-78
2021/04/29 07:11:05;;;;;;;12.25;6.75;;;12.30;63.00;;;;;;5052926;28;20096;-79
2021/04/29 07:13:31;;;;;;;9.23;6.20;;;12.30;62.00;;;;;;5052822;28;20031;-81
2021/04/29 07:15:56;;;;;;;10.35;6.78;;;12.40;61.80;;;;;;5052969;28;20465;-79
2021/04/29 07:18:22;;;;;;;11.77;6.20;;;12.40;62.00;;;;;;5052844;28;20107;-77
2021/04/29 07:20:47;;;;;;;9.75;6.50;;;12.60;61.90;;;;;;5052853;28;20108;-79
2021/04/29 07:23:13;;;;;;;13.35;5.82;;;12.60;61.10;;;;;;5052699;28;20102;-80
2021/04/29 07:25:39;;;;;;;8.35;6.22;;;12.60;61.30;;;;;;5052900;28;20024;-79
2021/04/29 07:28:05;;;;;;;10.65;5.97;;;12.60;60.60;;;;;;5052698;28;20505;-80
2021/04/29 07:30:32;;;;;;;10.68;5.30;;;12.60;60.80;;;;;;5052643;28;20533;-79
2021/04/29 07:32:58;;;;;;;9.77;5.63;;;12.50;61.50;;;;;;5052799;28;20382;-76
2021/04/29 07:35:24;;;;;;;10.25;6.32;;;12.60;62.30;;;;;;5052712;28;20019;-79
2021/04/29 07:37:49;;;;;;;9.18;5.75;;;12.60;62.90;;;;;;5052700;28;20025;-79
2021/04/29 07:40:16;;;;;;;12.38;5.80;;;12.60;62.10;;;;;;5052365;28;20409;-78
2021/04/29 07:42:42;;;;;;;10.32;5.65;;;12.70;62.40;;;;;;5052543;28;20112;-78
2021/04/29 07:45:09;;;;;;;13.52;7.07;;;12.90;63.10;;;;;;5052558;28;20017;-79
2021/04/29 07:47:35;;;;;;;9.43;5.75;;;13.00;61.20;;;;;;5052565;28;20033;-80
2021/04/29 07:50:01;;;;;;;10.23;6.30;;;12.90;61.20;;;;;;5052675;28;20032;-79
2021/04/29 07:52:26;;;;;;;13.02;7.30;;;12.90;61.20;;;;;;5052477;28;20028;-78
2021/04/29 07:54:52;;;;;;;12.43;5.03;;;12.90;61.50;;;;;;5052549;28;20108;-74
2021/04/29 07:57:20;;;;;;;8.25;5.15;;;13.10;62.00;;;;;;5052248;28;20057;-74
2021/04/29 07:59:46;;;;;;;12.50;5.22;;;13.40;62.20;;;;;;5054948;28;20028;-72
2021/04/29 08:02:12;;;;;;;11.65;6.38;;;13.50;61.10;;;;;;5056151;28;20033;-73
2021/04/29 08:04:38;;;;;;;8.15;5.72;;;13.70;60.40;;;;;;5056057;28;20048;-73
2021/04/29 08:07:03;;;;;;;13.95;7.72;;;13.60;58.80;;;;;;5055809;28;20029;-76
2021/04/29 08:09:29;;;;;;;11.77;6.50;;;13.60;57.90;;;;;;5055651;28;20025;-75
2021/04/29 08:11:54;;;;;;;12.95;7.20;;;13.50;57.70;;;;;;5055912;28;20029;-74
2021/04/29 08:14:20;;;;;;;14.45;7.28;;;13.50;58.80;;;;;;5054670;28;20052;-75
2021/04/29 08:16:45;;;;;;;11.60;7.53;;;13.90;58.60;;;;;;5054506;28;20119;-75
2021/04/29 08:19:11;;;;;;;13.18;6.85;;;13.90;56.60;;;;;;5055935;28;20021;-75
2021/04/29 08:21:37;;;;;;;13.18;7.20;;;14.20;55.80;;;;;;5055737;28;20028;-75
2021/04/29 08:24:04;;;;;;;12.65;7.70;;;14.30;55.20;;;;;;5055654;28;20060;-74
2021/04/29 08:26:30;;;;;;;10.52;6.88;;;14.30;55.20;;;;;;5055758;28;20100;-75
2021/04/29 08:28:55;;;;;;;9.88;6.50;;;14.60;54.30;;;;;;5055271;28;20154;-75
2021/04/29 08:31:21;;;;;;;14.60;6.55;;;14.70;54.20;;;;;;5055573;28;20032;-74
2021/04/29 08:33:46;;;;;;;11.05;6.03;;;14.90;53.70;;;;;;5055434;28;20073;-75
2021/04/29 08:36:12;;;;;;;13.52;7.45;;;15.00;52.60;;;;;;5055416;28;20119;-74
2021/04/29 08:38:38;;;;;;;13.18;7.60;;;15.00;52.80;;;;;;5054670;28;20099;-75
2021/04/29 08:41:03;;;;;;;14.60;8.27;;;14.80;52.60;;;;;;5055106;28;20108;-74
2021/04/29 08:43:29;;;;;;;13.65;6.55;;;14.60;52.90;;;;;;5055041;28;20037;-75
2021/04/29 08:45:55;;;;;;;14.00;7.53;;;14.70;54.50;;;;;;5055049;28;20032;-74
2021/04/29 08:48:23;;;;;;;13.60;7.43;;;14.80;54.00;;;;;;5055059;28;20108;-74
2021/04/29 08:50:49;;;;;;;16.33;7.95;;;14.70;54.10;;;;;;5055122;28;20013;-75
2021/04/29 08:53:15;;;;;;;15.10;8.90;;;14.60;54.20;;;;;;5055193;28;20070;-80
2021/04/29 08:55:41;;;;;;;13.00;8.52;;;14.30;54.50;;;;;;5055381;28;20426;-76
2021/04/29 08:58:08;;;;;;;12.13;9.45;;;14.00;55.80;;;;;;5055104;28;20094;-79
2021/04/29 09:00:34;;;;;;;15.73;8.45;;;13.70;56.30;;;;;;5055136;28;20025;-78
2021/04/29 09:02:59;;;;;;;11.43;8.38;;;13.80;57.00;;;;;;5055018;28;20033;-78
2021/04/29 09:05:32;;;;;;;13.30;8.27;;;14.00;57.10;;;;;;5055044;28;20025;-79
2021/04/29 09:08:04;;;;;;;16.23;8.70;;;14.10;56.90;;;;;;5055007;28;20032;-79
2021/04/29 09:10:40;;;;;;;13.07;9.23;;;14.30;57.60;;;;;;5054927;28;20017;-79
2021/04/29 09:13:17;;;;;;;12.73;8.50;;;14.50;55.30;;;;;;5054969;28;20057;-78
2021/04/29 09:15:44;;;;;;;13.73;8.10;;;14.60;54.30;;;;;;5055144;28;20025;-78
2021/04/29 09:18:13;;;;;;;17.77;8.20;;;14.70;54.60;;;;;;5053304;28;20497;-79
2021/04/29 09:20:54;;;;;;;16.48;9.30;;;14.80;55.20;;;;;;5054515;28;20025;-78
2021/04/29 09:23:31;;;;;;;17.35;9.02;;;14.80;53.20;;;;;;5054701;28;20033;-78
2021/04/29 09:25:58;;;;;;;15.88;8.80;;;14.70;53.90;;;;;;5054641;28;20021;-78
2021/04/29 09:28:47;;;;;;;13.18;8.35;;;14.80;54.30;;;;;;5055390;28;20036;-78
2021/04/29 09:31:19;;;;;;;17.92;8.93;;;14.90;54.40;;;;;;5055451;28;20470;-75
2021/04/29 09:33:50;;;;;;;17.60;8.40;;;14.80;54.40;;;;;;5054352;28;20032;-74
2021/04/29 09:36:33;;;;;;;14.23;8.25;;;14.90;53.20;;;;;;5054643;28;20029;-74
2021/04/29 09:39:01;;;;;;;14.10;9.63;;;15.00;53.50;;;;;;5054265;28;20045;-75
2021/04/29 09:41:30;;;;;;;15.15;9.13;;;14.90;53.00;;;;;;5062225;28;20052;-75
2021/04/29 09:43:58;;;;;;;14.02;8.68;;;14.90;53.30;;;;;;5061995;28;20116;-76
2021/04/29 09:46:24;;;;;;;16.05;9.05;;;14.70;53.30;;;;;;5054322;28;20031;-75
2021/04/29 09:48:51;;;;;;;13.95;9.20;;;14.70;53.30;;;;;;5054255;28;20021;-75
2021/04/29 09:51:18;;;;;;;14.63;8.93;;;14.60;53.20;;;;;;5052966;28;20385;-76
2021/04/29 09:53:49;;;;;;;12.75;8.43;;;14.60;53.70;;;;;;5053984;28;20385;-75
2021/04/29 09:56:17;;;;;;;14.52;8.43;;;14.70;53.70;;;;;;5054166;28;20024;-76
2021/04/29 09:58:50;;;;;;;17.95;9.02;;;14.50;53.20;;;;;;5053722;28;20036;-76
2021/04/29 10:01:16;;;;;;;13.25;9.05;;;14.60;53.30;;;;;;5053729;28;20132;-77
2021/04/29 10:03:42;;;;;;;12.93;8.45;;;14.40;53.40;;;;;;5053434;28;20162;-76
2021/04/29 10:06:14;;;;;;;15.70;9.00;;;14.30;53.80;;;;;;5053615;28;20025;-75
2021/04/29 10:08:40;;;;;;;11.15;8.10;;;14.40;53.60;;;;;;5053300;28;20048;-77
2021/04/29 10:11:06;;;;;;;14.50;8.52;;;14.50;54.10;;;;;;5053205;28;20056;-76
2021/04/29 10:13:35;;;;;;;12.15;7.97;;;14.50;54.40;;;;;;5053890;28;20025;-74
2021/04/29 10:16:01;;;;;;;16.25;9.15;;;14.70;53.80;;;;;;5053763;28;20025;-76
2021/04/29 10:18:28;;;;;;;12.32;8.48;;;14.60;54.50;;;;;;5053401;28;20432;-76
2021/04/29 10:20:56;;;;;;;12.23;8.00;;;14.60;54.90;;;;;;5053105;28;20021;-76
2021/04/29 10:23:22;;;;;;;13.07;7.55;;;14.50;55.30;;;;;;5053046;28;20107;-77
2021/04/29 10:25:53;;;;;;;10.40;6.57;;;14.70;54.40;;;;;;5053387;28;20147;-76
2021/04/29 10:28:35;;;;;;;9.93;6.97;;;14.70;53.10;;;;;;5053248;28;20104;-78
2021/04/29 10:31:14;;;;;;;13.23;7.82;;;14.80;53.90;;;;;;5053301;28;20047;-76
2021/04/29 10:33:48;;;;;;;14.20;7.65;;;14.60;53.90;;;;;;5052934;28;20033;-76
2021/04/29 10:36:14;;;;;;;12.65;7.25;;;14.40;55.00;;;;;;5053197;28;20555;-77
2021/04/29 10:38:39;;;;;;;14.35;7.88;;;14.40;55.00;;;;;;5051495;28;20175;-77
2021/04/29 10:41:25;;;;;;;11.27;7.47;;;14.40;54.90;;;;;;5053150;28;20457;-76
2021/04/29 10:43:53;;;;;;;11.35;6.97;;;14.50;54.80;;;;;;5052954;28;20049;-74
2021/04/29 10:46:32;;;;;;;13.02;6.50;;;14.50;54.30;;;;;;5052885;28;20108;-74
2021/04/29 10:48:59;;;;;;;15.65;6.78;;;14.70;53.90;;;;;;5052863;28;20025;-75
2021/04/29 10:51:30;;;;;;;11.63;5.68;;;14.70;53.60;;;;;;5057163;28;20017;-74
2021/04/29 10:54:08;;;;;;;10.68;5.93;;;14.60;51.10;;;;;;5056308;28;20048;-72
2021/04/29 10:56:34;;;;;;;13.65;6.55;;;14.60;50.50;;;;;;5053263;28;20103;-73
2021/04/29 10:59:09;;;;;;;9.75;4.53;;;14.50;50.30;;;;;;5052899;28;20080;-73
2021/04/29 11:01:43;;;;;;;11.63;4.85;;;14.70;50.30;;;;;;5052838;28;20047;-74
2021/04/29 11:04:18;;;;;;;7.85;4.28;;;14.90;49.70;;;;;;5052805;28;20075;-74
2021/04/29 11:06:44;;;;;;;12.07;4.95;;;14.90;48.30;;;;;;5052814;28;20101;-74
2021/04/29 11:09:19;;;;;;;11.38;5.00;;;14.80;47.30;;;;;;5052913;28;20076;-74
2021/04/29 11:11:45;;;;;;;8.40;5.28;;;14.60;48.40;;;;;;5052997;28;20112;-73
2021/04/29 11:14:20;;;;;;;9.60;4.78;;;14.60;49.10;;;;;;5053032;28;20025;-75
2021/04/29 11:16:50;;;;;;;8.80;3.90;;;14.70;50.50;;;;;;5053117;28;20386;-73
2021/04/29 11:19:36;;;;;;;7.90;4.05;;;15.00;49.40;;;;;;5055549;28;20025;-74
2021/04/29 11:22:11;;;;;;;7.00;4.20;;;15.10;48.30;;;;;;5058681;28;20084;-74
2021/04/29 11:24:41;;;;;;;8.43;4.22;;;15.50;47.40;;;;;;5057420;28;20033;-74
2021/04/29 11:27:28;;;;;;;13.13;4.40;;;15.70;46.00;;;;;;5054085;28;20025;-75
2021/04/29 11:30:06;;;;;;;9.40;4.18;;;15.70;45.40;;;;;;5051690;28;20378;-74
2021/04/29 11:32:33;;;;;;;10.82;3.88;;;16.00;44.80;;;;;;5052474;28;20082;-75
2021/04/29 11:35:02;;;;;;;10.93;3.90;;;16.30;44.90;;;;;;5052826;28;20025;-75
2021/04/29 11:37:38;;;;;;;8.55;3.30;;;16.70;43.20;;;;;;5053723;28;20032;-76
2021/04/29 11:40:05;;;;;;;5.93;3.85;;;17.00;41.80;;;;;;5055690;28;20052;-74
2021/04/29 11:42:32;;;;;;;8.07;3.42;;;16.90;40.90;;;;;;5056727;28;20477;-76
2021/04/29 11:45:17;;;;;;;5.68;3.38;;;17.00;40.10;;;;;;5056991;28;20017;-76
2021/04/29 11:48:03;;;;;;;10.67;3.23;;;16.60;40.50;;;;;;5056293;28;20051;-77
2021/04/29 11:50:35;;;;;;;9.43;3.40;;;16.60;41.10;;;;;;5056525;28;20271;-76
2021/04/29 11:53:18;;;;;;;6.53;3.17;;;16.70;41.10;;;;;;5056927;28;20048;-74
2021/04/29 11:55:50;;;;;;;7.28;3.10;;;17.00;40.90;;;;;;5056562;28;20032;-74
2021/04/29 11:58:20;;;;;;;5.32;3.10;;;17.60;40.40;;;;;;5056457;28;20377;-74
2021/04/29 12:00:50;;;;;;;4.95;3.20;;;17.50;39.50;;;;;;5056302;28;20025;-73
2021/04/29 12:03:17;;;;;;;7.88;3.20;;;17.60;39.00;;;;;;5056181;28;20550;-73
2021/04/29 12:05:44;;;;;;;6.93;3.60;;;17.60;39.10;;;;;;5056178;28;20029;-79
2021/04/29 12:08:14;;;;;;;6.10;3.72;;;17.80;38.40;;;;;;5056324;28;20024;-79
2021/04/29 12:10:51;;;;;;;7.63;3.00;;;17.40;38.00;;;;;;5056801;28;20084;-81
2021/04/29 12:13:27;;;;;;;5.25;3.08;;;17.20;38.20;;;;;;5055679;28;20021;-80
2021/04/29 12:15:53;;;;;;;5.18;2.78;;;16.70;38.40;;;;;;5056180;28;20021;-81
2021/04/29 12:18:18;;;;;;;4.88;3.47;;;16.30;39.80;;;;;;5055885;28;20106;-80
2021/04/29 12:20:44;;;;;;;8.52;3.63;;;16.10;40.00;;;;;;5055595;28;20384;-76
2021/04/29 12:23:11;;;;;;;5.63;2.53;;;16.20;40.50;;;;;;5055831;28;20039;-80
2021/04/29 12:25:37;;;;;;;5.55;2.63;;;16.20;40.70;;;;;;5055956;28;20028;-81
2021/04/29 12:28:17;;;;;;;7.65;3.35;;;16.40;40.80;;;;;;5055784;28;20021;-81
2021/04/29 12:30:44;;;;;;;7.38;3.50;;;16.70;40.00;;;;;;5054482;28;20040;-80
2021/04/29 12:33:20;;;;;;;9.20;4.10;;;16.70;39.80;;;;;;5055511;28;20048;-81
2021/04/29 12:35:46;;;;;;;7.32;2.70;;;16.40;39.20;;;;;;5055623;28;20032;-79
2021/04/29 12:38:13;;;;;;;5.30;2.40;;;16.20;39.10;;;;;;5055351;28;20375;-77
2021/04/29 12:40:39;;;;;;;5.25;2.53;;;16.00;39.30;;;;;;5055700;28;20087;-77
2021/04/29 12:43:11;;;;;;;4.57;2.65;;;15.80;40.00;;;;;;5055074;28;20037;-81
2021/04/29 12:46:05;;;;;;;4.82;2.38;;;15.70;40.60;;;;;;5054672;28;20033;-79